Laois — FN4213 — position and weather

sailwx.info

Track history (hours):
 
Tides and Currents Weather Stations Pressure Air Temp Water Temp Dewpoint Dewpoint Depression Visibility Wind Speed Wind Dir Waves Ship Positions

Laois

Last reported at 2017-Nov-03 14:58 UTC. Time now 2017-Nov-19 07:05 UTC.
Position N 47°25' W 002°40'.
Warning: this ship's position is 15 days out of date.

Length 13 m.

Type: Sailing vessel. MMSI: 227519360.

Date/timePositionNaut miles runAvg speedWind from/ knotsBaromVisibWave heightAir tempDewpointWater temp
2017-Nov-03 14:58N 47°25' W 002°40'3 6.5
2017-Nov-03 14:29N 47°26' W 002°44'3 5.1
2017-Nov-03 13:59N 47°25' W 002°47'2 3.2
2017-Nov-03 13:30N 47°25' W 002°50'2 3.6
2017-Nov-03 13:00N 47°27' W 002°51'3 6.3
2017-Nov-03 12:30N 47°25' W 002°54'2 4.7
2017-Nov-03 11:59N 47°24' W 002°57'0 0.0
2017-Nov-03 11:29N 47°24' W 002°57'0 0.0
2017-Nov-03 10:53N 47°24' W 002°57'0 0.0
2017-Nov-03 10:29N 47°24' W 002°57'0 0.0
2017-Nov-03 09:59N 47°24' W 002°57'0 0.0
2017-Nov-03 09:26N 47°24' W 002°57'0 0.1
2017-Nov-03 09:00N 47°24' W 002°57'3 5.4
2017-Nov-03 08:30N 47°25' W 002°54'3 6.3
2017-Nov-03 07:59N 47°25' W 002°50'3 6.9
2017-Nov-03 07:30N 47°25' W 002°45'3 5.9
2017-Nov-03 06:55N 47°24' W 002°40'2 5.7
2017-Nov-03 06:30N 47°24' W 002°36'3 0.1
2017-Nov-02 09:24N 47°23' W 002°33'  
Track history (hours):
 
Tides and Currents Weather Stations Pressure Air Temp Water Temp Dewpoint Dewpoint Depression Visibility Wind Speed Wind Dir Waves Ship Positions

Laois

Last reported at 2017-Nov-03 14:58 UTC. Time now 2017-Nov-19 07:05 UTC.
Position N 47°25' W 002°40'.
Warning: this ship's position is 15 days out of date.

Length 13 m.

Type: Sailing vessel. MMSI: 227519360.

Date/timePositionNaut miles runAvg speedWind from/ knotsBaromVisibWave heightAir tempDewpointWater temp
2017-Nov-03 14:58N 47°25' W 002°40'3 6.5
2017-Nov-03 14:29N 47°26' W 002°44'3 5.1
2017-Nov-03 13:59N 47°25' W 002°47'2 3.2
2017-Nov-03 13:30N 47°25' W 002°50'2 3.6
2017-Nov-03 13:00N 47°27' W 002°51'3 6.3
2017-Nov-03 12:30N 47°25' W 002°54'2 4.7
2017-Nov-03 11:59N 47°24' W 002°57'0 0.0
2017-Nov-03 11:29N 47°24' W 002°57'0 0.0
2017-Nov-03 10:53N 47°24' W 002°57'0 0.0
2017-Nov-03 10:29N 47°24' W 002°57'0 0.0
2017-Nov-03 09:59N 47°24' W 002°57'0 0.0
2017-Nov-03 09:26N 47°24' W 002°57'0 0.1
2017-Nov-03 09:00N 47°24' W 002°57'3 5.4
2017-Nov-03 08:30N 47°25' W 002°54'3 6.3
2017-Nov-03 07:59N 47°25' W 002°50'3 6.9
2017-Nov-03 07:30N 47°25' W 002°45'3 5.9
2017-Nov-03 06:55N 47°24' W 002°40'2 5.7
2017-Nov-03 06:30N 47°24' W 002°36'3 0.1
2017-Nov-02 09:24N 47°23' W 002°33'  

Dump ship's entire track history